Terminal Aerodrome Forecast
Issued by NWS Green Bay, WI

Home | Current Version | Previous Version | Graphics & Text | Print | Product List | Glossary On
Versions: 1 2 3 4 5 6 7 8 9 10 11 12 13 14 15 16
000
FTUS43 KGRB 222330
TAFGRB
TAF
KGRB 222330Z 2300/2324 19010G17KT P6SM SCT080
     FM230400 20008KT P6SM SCT080 WS010/23035KT
     FM231200 20007KT P6SM SKC
     FM231500 20012G19KT P6SM SKC=

USA.gov is the U.S. government's official web portal to all federal, state and local government web resources and services.